Jarvisburg, North Carolina
Current Conditions -  °F | °C
As of 2:35 PM on Friday 31 Oct 2014 (Local Time) from KONX Reporting Station
Haze Haze  
Wind Chill: 62°   Ceiling: 6000
Heat Index: 62°   Visibility: 3mi
Dew Point: 48°   Wind: 14mph
Humidity: 61%   Direction: 360°N
Pressure: 29.81"   Gusts: 17mph
Location:  36.2°N, 75.87°W
Report Text: KONX 311835Z AUTO 36012G15KT 3SM HZ SCT029 BKN060 OVC070 16/09 A2981 RMK AO2 T01640089
Loading
Personal Weather Stations






























Interactive Weather Map New forecast layout! Learn more

10-Day Weather Forecast

Advertisements
Track Severe Weather on mobile